sensor_id;sensor_type;location;lat;lon;timestamp;temperature;humidity
21722;DHT22;11023;48.274;7.794;2024-01-07T00:00:20;5.50;99.90
21722;DHT22;11023;48.274;7.794;2024-01-07T00:02:46;5.40;99.90
21722;DHT22;11023;48.274;7.794;2024-01-07T00:05:12;5.40;99.90
21722;DHT22;11023;48.274;7.794;2024-01-07T00:07:37;5.30;99.90
21722;DHT22;11023;48.274;7.794;2024-01-07T00:10:03;5.20;99.90
21722;DHT22;11023;48.274;7.794;2024-01-07T00:12:29;5.20;99.90
21722;DHT22;11023;48.274;7.794;2024-01-07T00:14:55;5.20;99.90
21722;DHT22;11023;48.274;7.794;2024-01-07T00:17:20;5.20;99.90
21722;DHT22;11023;48.274;7.794;2024-01-07T00:19:46;5.20;99.90
21722;DHT22;11023;48.274;7.794;2024-01-07T00:22:12;5.10;99.90
21722;DHT22;11023;48.274;7.794;2024-01-07T00:24:37;5.10;99.90
21722;DHT22;11023;48.274;7.794;2024-01-07T00:27:03;5.10;99.90
21722;DHT22;11023;48.274;7.794;2024-01-07T00:29:29;5.10;99.90
21722;DHT22;11023;48.274;7.794;2024-01-07T00:31:55;5.10;99.90
21722;DHT22;11023;48.274;7.794;2024-01-07T00:34:21;5.00;99.90
21722;DHT22;11023;48.274;7.794;2024-01-07T00:36:47;5.00;99.90
21722;DHT22;11023;48.274;7.794;2024-01-07T00:39:12;5.10;99.90
21722;DHT22;11023;48.274;7.794;2024-01-07T00:41:38;5.10;99.90
21722;DHT22;11023;48.274;7.794;2024-01-07T00:44:04;5.10;99.90
21722;DHT22;11023;48.274;7.794;2024-01-07T00:46:29;5.10;99.90
21722;DHT22;11023;48.274;7.794;2024-01-07T00:48:55;5.10;99.90
21722;DHT22;11023;48.274;7.794;2024-01-07T00:51:21;5.00;99.90
21722;DHT22;11023;48.274;7.794;2024-01-07T00:53:46;5.00;99.90
21722;DHT22;11023;48.274;7.794;2024-01-07T00:56:12;5.00;99.90
21722;DHT22;11023;48.274;7.794;2024-01-07T00:58:39;5.00;99.90
21722;DHT22;11023;48.274;7.794;2024-01-07T01:01:05;4.90;99.90
21722;DHT22;11023;48.274;7.794;2024-01-07T01:03:31;4.90;99.90
21722;DHT22;11023;48.274;7.794;2024-01-07T01:05:56;4.90;99.90
21722;DHT22;11023;48.274;7.794;2024-01-07T01:08:22;4.90;99.90
21722;DHT22;11023;48.274;7.794;2024-01-07T01:10:49;4.90;99.90
21722;DHT22;11023;48.274;7.794;2024-01-07T01:13:14;4.80;99.90
21722;DHT22;11023;48.274;7.794;2024-01-07T01:15:40;4.70;99.90
21722;DHT22;11023;48.274;7.794;2024-01-07T01:18:05;4.70;99.90
21722;DHT22;11023;48.274;7.794;2024-01-07T01:20:31;4.70;99.90
21722;DHT22;11023;48.274;7.794;2024-01-07T01:22:57;4.80;99.90
21722;DHT22;11023;48.274;7.794;2024-01-07T01:25:22;4.70;99.90
21722;DHT22;11023;48.274;7.794;2024-01-07T01:27:48;4.70;99.90
21722;DHT22;11023;48.274;7.794;2024-01-07T01:30:14;4.70;99.90
21722;DHT22;11023;48.274;7.794;2024-01-07T01:32:40;4.80;99.90
21722;DHT22;11023;48.274;7.794;2024-01-07T01:35:06;4.80;99.90
21722;DHT22;11023;48.274;7.794;2024-01-07T01:37:31;4.70;99.90
21722;DHT22;11023;48.274;7.794;2024-01-07T01:40:04;4.70;99.90
21722;DHT22;11023;48.274;7.794;2024-01-07T01:42:29;4.70;99.90
21722;DHT22;11023;48.274;7.794;2024-01-07T01:44:55;4.70;99.90
21722;DHT22;11023;48.274;7.794;2024-01-07T01:47:25;4.70;99.90
21722;DHT22;11023;48.274;7.794;2024-01-07T01:49:50;4.70;99.90
21722;DHT22;11023;48.274;7.794;2024-01-07T01:52:16;4.70;99.90
21722;DHT22;11023;48.274;7.794;2024-01-07T01:54:42;4.70;99.90
21722;DHT22;11023;48.274;7.794;2024-01-07T01:57:12;4.70;99.90
21722;DHT22;11023;48.274;7.794;2024-01-07T01:59:39;4.70;99.90
21722;DHT22;11023;48.274;7.794;2024-01-07T02:02:07;4.70;99.90
21722;DHT22;11023;48.274;7.794;2024-01-07T02:04:36;4.60;99.90
21722;DHT22;11023;48.274;7.794;2024-01-07T02:07:02;4.50;99.90
21722;DHT22;11023;48.274;7.794;2024-01-07T02:09:27;4.50;99.90
21722;DHT22;11023;48.274;7.794;2024-01-07T02:12:03;4.60;99.90
21722;DHT22;11023;48.274;7.794;2024-01-07T02:14:30;4.60;99.90
21722;DHT22;11023;48.274;7.794;2024-01-07T02:16:55;4.60;99.90
21722;DHT22;11023;48.274;7.794;2024-01-07T02:19:21;4.60;99.90
21722;DHT22;11023;48.274;7.794;2024-01-07T02:21:49;4.60;99.90
21722;DHT22;11023;48.274;7.794;2024-01-07T02:24:16;4.60;99.90
21722;DHT22;11023;48.274;7.794;2024-01-07T02:26:42;4.60;99.90
21722;DHT22;11023;48.274;7.794;2024-01-07T02:29:08;4.50;99.90
21722;DHT22;11023;48.274;7.794;2024-01-07T02:31:33;4.60;99.90
21722;DHT22;11023;48.274;7.794;2024-01-07T02:33:59;4.50;99.90
21722;DHT22;11023;48.274;7.794;2024-01-07T02:36:25;4.50;99.90
21722;DHT22;11023;48.274;7.794;2024-01-07T02:38:52;4.50;99.90
21722;DHT22;11023;48.274;7.794;2024-01-07T02:41:18;4.50;99.90
21722;DHT22;11023;48.274;7.794;2024-01-07T02:43:45;4.50;99.90
21722;DHT22;11023;48.274;7.794;2024-01-07T02:46:11;4.50;99.90
21722;DHT22;11023;48.274;7.794;2024-01-07T02:48:37;4.50;99.90
21722;DHT22;11023;48.274;7.794;2024-01-07T02:51:03;4.50;99.90
21722;DHT22;11023;48.274;7.794;2024-01-07T02:53:31;4.50;99.90
21722;DHT22;11023;48.274;7.794;2024-01-07T02:55:58;4.50;99.90
21722;DHT22;11023;48.274;7.794;2024-01-07T02:58:24;4.60;99.90
21722;DHT22;11023;48.274;7.794;2024-01-07T03:00:49;4.60;99.90
21722;DHT22;11023;48.274;7.794;2024-01-07T03:03:16;4.60;99.90
21722;DHT22;11023;48.274;7.794;2024-01-07T03:05:41;4.60;99.90
21722;DHT22;11023;48.274;7.794;2024-01-07T03:08:08;4.60;99.90
21722;DHT22;11023;48.274;7.794;2024-01-07T03:10:34;4.60;99.90
21722;DHT22;11023;48.274;7.794;2024-01-07T03:13:00;4.60;99.90
21722;DHT22;11023;48.274;7.794;2024-01-07T03:15:27;4.70;99.90
21722;DHT22;11023;48.274;7.794;2024-01-07T03:17:52;4.60;99.90
21722;DHT22;11023;48.274;7.794;2024-01-07T03:20:18;4.60;99.90
21722;DHT22;11023;48.274;7.794;2024-01-07T03:22:45;4.60;99.90
21722;DHT22;11023;48.274;7.794;2024-01-07T03:25:11;4.60;99.90
21722;DHT22;11023;48.274;7.794;2024-01-07T03:27:37;4.60;99.90
21722;DHT22;11023;48.274;7.794;2024-01-07T03:30:03;4.60;99.90
21722;DHT22;11023;48.274;7.794;2024-01-07T03:32:29;4.60;99.90
21722;DHT22;11023;48.274;7.794;2024-01-07T03:34:55;4.60;99.90
21722;DHT22;11023;48.274;7.794;2024-01-07T03:37:20;4.60;99.90
21722;DHT22;11023;48.274;7.794;2024-01-07T03:39:47;4.60;99.90
21722;DHT22;11023;48.274;7.794;2024-01-07T03:42:13;4.60;99.90
21722;DHT22;11023;48.274;7.794;2024-01-07T03:44:39;4.60;99.90
21722;DHT22;11023;48.274;7.794;2024-01-07T03:47:08;4.50;99.90
21722;DHT22;11023;48.274;7.794;2024-01-07T03:49:36;4.50;99.90
21722;DHT22;11023;48.274;7.794;2024-01-07T03:52:02;4.50;99.90
21722;DHT22;11023;48.274;7.794;2024-01-07T03:54:27;4.50;99.90
21722;DHT22;11023;48.274;7.794;2024-01-07T03:56:53;4.50;99.90
21722;DHT22;11023;48.274;7.794;2024-01-07T03:59:19;4.40;99.90
21722;DHT22;11023;48.274;7.794;2024-01-07T04:01:45;4.40;99.90
21722;DHT22;11023;48.274;7.794;2024-01-07T04:04:10;4.40;99.90
21722;DHT22;11023;48.274;7.794;2024-01-07T04:06:36;4.40;99.90
21722;DHT22;11023;48.274;7.794;2024-01-07T04:09:02;4.50;99.90
21722;DHT22;11023;48.274;7.794;2024-01-07T04:11:28;4.50;99.90
21722;DHT22;11023;48.274;7.794;2024-01-07T04:13:54;4.40;99.90
21722;DHT22;11023;48.274;7.794;2024-01-07T04:16:20;4.40;99.90
21722;DHT22;11023;48.274;7.794;2024-01-07T04:18:47;4.40;99.90
21722;DHT22;11023;48.274;7.794;2024-01-07T04:21:13;4.40;99.90
21722;DHT22;11023;48.274;7.794;2024-01-07T04:23:39;4.30;99.90
21722;DHT22;11023;48.274;7.794;2024-01-07T04:26:09;4.40;99.90
21722;DHT22;11023;48.274;7.794;2024-01-07T04:28:35;4.30;99.90
21722;DHT22;11023;48.274;7.794;2024-01-07T04:31:01;4.30;99.90
21722;DHT22;11023;48.274;7.794;2024-01-07T04:33:27;4.30;99.90
21722;DHT22;11023;48.274;7.794;2024-01-07T04:35:53;4.30;99.90
21722;DHT22;11023;48.274;7.794;2024-01-07T04:38:23;4.20;99.90
21722;DHT22;11023;48.274;7.794;2024-01-07T04:40:50;4.30;99.90
21722;DHT22;11023;48.274;7.794;2024-01-07T04:43:16;4.20;99.90
21722;DHT22;11023;48.274;7.794;2024-01-07T04:45:42;4.20;99.90
21722;DHT22;11023;48.274;7.794;2024-01-07T04:48:07;4.20;99.90
21722;DHT22;11023;48.274;7.794;2024-01-07T04:50:33;4.30;99.90
21722;DHT22;11023;48.274;7.794;2024-01-07T04:52:59;4.30;99.90
21722;DHT22;11023;48.274;7.794;2024-01-07T04:55:26;4.20;99.90
21722;DHT22;11023;48.274;7.794;2024-01-07T04:58:15;4.20;99.90
21722;DHT22;11023;48.274;7.794;2024-01-07T05:00:41;4.30;99.90
21722;DHT22;11023;48.274;7.794;2024-01-07T05:03:06;4.20;99.90
21722;DHT22;11023;48.274;7.794;2024-01-07T05:05:32;4.20;99.90
21722;DHT22;11023;48.274;7.794;2024-01-07T05:07:58;4.20;99.90
21722;DHT22;11023;48.274;7.794;2024-01-07T05:10:26;4.20;99.90
21722;DHT22;11023;48.274;7.794;2024-01-07T05:12:51;4.20;99.90
21722;DHT22;11023;48.274;7.794;2024-01-07T05:15:17;4.20;99.90
21722;DHT22;11023;48.274;7.794;2024-01-07T05:17:43;4.20;99.90
21722;DHT22;11023;48.274;7.794;2024-01-07T05:20:09;4.20;99.90
21722;DHT22;11023;48.274;7.794;2024-01-07T05:22:35;4.20;99.90
21722;DHT22;11023;48.274;7.794;2024-01-07T05:25:01;4.20;99.90
21722;DHT22;11023;48.274;7.794;2024-01-07T05:27:26;4.20;99.90
21722;DHT22;11023;48.274;7.794;2024-01-07T05:29:52;4.30;99.90
21722;DHT22;11023;48.274;7.794;2024-01-07T05:32:20;4.30;99.90
21722;DHT22;11023;48.274;7.794;2024-01-07T05:34:46;4.20;99.90
21722;DHT22;11023;48.274;7.794;2024-01-07T05:37:12;4.30;99.90
21722;DHT22;11023;48.274;7.794;2024-01-07T05:39:38;4.30;99.90
21722;DHT22;11023;48.274;7.794;2024-01-07T05:42:04;4.30;99.90
21722;DHT22;11023;48.274;7.794;2024-01-07T05:44:30;4.30;99.90
21722;DHT22;11023;48.274;7.794;2024-01-07T05:46:55;4.40;99.90
21722;DHT22;11023;48.274;7.794;2024-01-07T05:49:21;4.30;99.90
21722;DHT22;11023;48.274;7.794;2024-01-07T05:51:47;4.40;99.90
21722;DHT22;11023;48.274;7.794;2024-01-07T05:54:13;4.40;99.90
21722;DHT22;11023;48.274;7.794;2024-01-07T05:56:39;4.40;99.90
21722;DHT22;11023;48.274;7.794;2024-01-07T05:59:06;4.40;99.90
21722;DHT22;11023;48.274;7.794;2024-01-07T06:01:32;4.40;99.90
21722;DHT22;11023;48.274;7.794;2024-01-07T06:03:58;4.40;99.90
21722;DHT22;11023;48.274;7.794;2024-01-07T06:06:23;4.30;99.90
21722;DHT22;11023;48.274;7.794;2024-01-07T06:08:49;4.40;99.90
21722;DHT22;11023;48.274;7.794;2024-01-07T06:11:15;4.40;99.90
21722;DHT22;11023;48.274;7.794;2024-01-07T06:13:45;4.40;99.90
21722;DHT22;11023;48.274;7.794;2024-01-07T06:16:11;4.40;99.90
21722;DHT22;11023;48.274;7.794;2024-01-07T06:18:37;4.40;99.90
21722;DHT22;11023;48.274;7.794;2024-01-07T06:21:03;4.40;99.90
21722;DHT22;11023;48.274;7.794;2024-01-07T06:23:28;4.40;99.90
21722;DHT22;11023;48.274;7.794;2024-01-07T06:25:54;4.40;99.90
21722;DHT22;11023;48.274;7.794;2024-01-07T06:28:20;4.40;99.90
21722;DHT22;11023;48.274;7.794;2024-01-07T06:30:46;4.40;99.90
21722;DHT22;11023;48.274;7.794;2024-01-07T06:33:12;4.40;99.90
21722;DHT22;11023;48.274;7.794;2024-01-07T06:35:38;4.40;99.90
21722;DHT22;11023;48.274;7.794;2024-01-07T06:38:04;4.30;99.90
21722;DHT22;11023;48.274;7.794;2024-01-07T06:40:29;4.30;99.90
21722;DHT22;11023;48.274;7.794;2024-01-07T06:42:55;4.30;99.90
21722;DHT22;11023;48.274;7.794;2024-01-07T06:45:21;4.30;99.90
21722;DHT22;11023;48.274;7.794;2024-01-07T06:47:47;4.20;99.90
21722;DHT22;11023;48.274;7.794;2024-01-07T06:50:13;4.30;99.90
21722;DHT22;11023;48.274;7.794;2024-01-07T06:52:38;4.30;99.90
21722;DHT22;11023;48.274;7.794;2024-01-07T06:55:04;4.30;99.90
21722;DHT22;11023;48.274;7.794;2024-01-07T06:57:30;4.30;99.90
21722;DHT22;11023;48.274;7.794;2024-01-07T06:59:56;4.20;99.90
21722;DHT22;11023;48.274;7.794;2024-01-07T07:02:21;4.30;99.90
21722;DHT22;11023;48.274;7.794;2024-01-07T07:04:47;4.30;99.90
21722;DHT22;11023;48.274;7.794;2024-01-07T07:07:13;4.30;99.90
21722;DHT22;11023;48.274;7.794;2024-01-07T07:09:39;4.30;99.90
21722;DHT22;11023;48.274;7.794;2024-01-07T07:12:05;4.30;99.90
21722;DHT22;11023;48.274;7.794;2024-01-07T07:14:31;4.30;99.90
21722;DHT22;11023;48.274;7.794;2024-01-07T07:16:57;4.40;99.90
21722;DHT22;11023;48.274;7.794;2024-01-07T07:19:23;4.40;99.90
21722;DHT22;11023;48.274;7.794;2024-01-07T07:21:49;4.40;99.90
21722;DHT22;11023;48.274;7.794;2024-01-07T07:24:14;4.40;99.90
21722;DHT22;11023;48.274;7.794;2024-01-07T07:26:40;4.40;99.90
21722;DHT22;11023;48.274;7.794;2024-01-07T07:29:07;4.40;99.90
21722;DHT22;11023;48.274;7.794;2024-01-07T07:31:35;4.40;99.90
21722;DHT22;11023;48.274;7.794;2024-01-07T07:34:05;4.40;99.90
21722;DHT22;11023;48.274;7.794;2024-01-07T07:36:31;4.40;99.90
21722;DHT22;11023;48.274;7.794;2024-01-07T07:38:56;4.40;99.90
21722;DHT22;11023;48.274;7.794;2024-01-07T07:41:22;4.40;99.90
21722;DHT22;11023;48.274;7.794;2024-01-07T07:43:48;4.40;99.90
21722;DHT22;11023;48.274;7.794;2024-01-07T07:46:13;4.40;99.90
21722;DHT22;11023;48.274;7.794;2024-01-07T07:48:41;4.40;99.90
21722;DHT22;11023;48.274;7.794;2024-01-07T07:51:07;4.30;99.90
21722;DHT22;11023;48.274;7.794;2024-01-07T07:53:33;4.30;99.90
21722;DHT22;11023;48.274;7.794;2024-01-07T07:55:59;4.30;99.90
21722;DHT22;11023;48.274;7.794;2024-01-07T07:58:25;4.20;99.90
21722;DHT22;11023;48.274;7.794;2024-01-07T08:00:51;4.20;99.90
21722;DHT22;11023;48.274;7.794;2024-01-07T08:03:18;4.20;99.90
21722;DHT22;11023;48.274;7.794;2024-01-07T08:05:44;4.20;99.90
21722;DHT22;11023;48.274;7.794;2024-01-07T08:08:09;4.20;99.90
21722;DHT22;11023;48.274;7.794;2024-01-07T08:10:35;4.20;99.90
21722;DHT22;11023;48.274;7.794;2024-01-07T08:13:01;4.20;99.90
21722;DHT22;11023;48.274;7.794;2024-01-07T08:15:30;4.20;99.90
21722;DHT22;11023;48.274;7.794;2024-01-07T08:17:56;4.20;99.90
21722;DHT22;11023;48.274;7.794;2024-01-07T08:20:22;4.20;99.90
21722;DHT22;11023;48.274;7.794;2024-01-07T08:22:49;4.30;99.90
21722;DHT22;11023;48.274;7.794;2024-01-07T08:25:16;4.20;99.90
21722;DHT22;11023;48.274;7.794;2024-01-07T08:27:41;4.20;99.90
21722;DHT22;11023;48.274;7.794;2024-01-07T08:30:08;4.20;99.90
21722;DHT22;11023;48.274;7.794;2024-01-07T08:32:34;4.20;99.90
21722;DHT22;11023;48.274;7.794;2024-01-07T08:35:01;4.30;99.90
21722;DHT22;11023;48.274;7.794;2024-01-07T08:37:27;4.30;99.90
21722;DHT22;11023;48.274;7.794;2024-01-07T08:39:53;4.30;99.90
21722;DHT22;11023;48.274;7.794;2024-01-07T08:42:22;4.30;99.90
21722;DHT22;11023;48.274;7.794;2024-01-07T08:44:48;4.30;99.90
21722;DHT22;11023;48.274;7.794;2024-01-07T08:47:16;4.30;99.90
21722;DHT22;11023;48.274;7.794;2024-01-07T08:49:44;4.30;99.90
21722;DHT22;11023;48.274;7.794;2024-01-07T08:52:09;4.30;99.90
21722;DHT22;11023;48.274;7.794;2024-01-07T08:54:35;4.40;99.90
21722;DHT22;11023;48.274;7.794;2024-01-07T08:57:02;4.40;99.90
21722;DHT22;11023;48.274;7.794;2024-01-07T08:59:30;4.40;99.90
21722;DHT22;11023;48.274;7.794;2024-01-07T09:01:56;4.40;99.90
21722;DHT22;11023;48.274;7.794;2024-01-07T09:04:22;4.40;99.90
21722;DHT22;11023;48.274;7.794;2024-01-07T09:06:49;4.40;99.90
21722;DHT22;11023;48.274;7.794;2024-01-07T09:09:14;4.50;99.90
21722;DHT22;11023;48.274;7.794;2024-01-07T09:11:40;4.40;99.90
21722;DHT22;11023;48.274;7.794;2024-01-07T09:14:06;4.40;99.90
21722;DHT22;11023;48.274;7.794;2024-01-07T09:16:33;4.50;99.90
21722;DHT22;11023;48.274;7.794;2024-01-07T09:18:58;4.50;99.90
21722;DHT22;11023;48.274;7.794;2024-01-07T09:21:24;4.50;99.90
21722;DHT22;11023;48.274;7.794;2024-01-07T09:23:52;4.50;99.90
21722;DHT22;11023;48.274;7.794;2024-01-07T09:26:18;4.50;99.90
21722;DHT22;11023;48.274;7.794;2024-01-07T09:28:44;4.50;99.90
21722;DHT22;11023;48.274;7.794;2024-01-07T09:31:09;4.50;99.90
21722;DHT22;11023;48.274;7.794;2024-01-07T09:33:35;4.50;99.90
21722;DHT22;11023;48.274;7.794;2024-01-07T09:36:01;4.50;99.90
21722;DHT22;11023;48.274;7.794;2024-01-07T09:38:26;4.50;99.90
21722;DHT22;11023;48.274;7.794;2024-01-07T09:40:52;4.50;99.90
21722;DHT22;11023;48.274;7.794;2024-01-07T09:43:23;4.50;99.90
21722;DHT22;11023;48.274;7.794;2024-01-07T09:45:50;4.50;99.90
21722;DHT22;11023;48.274;7.794;2024-01-07T09:48:18;4.50;99.90
21722;DHT22;11023;48.274;7.794;2024-01-07T09:50:44;4.60;99.90
21722;DHT22;11023;48.274;7.794;2024-01-07T09:53:15;4.60;99.90
21722;DHT22;11023;48.274;7.794;2024-01-07T09:56:06;4.60;99.90
21722;DHT22;11023;48.274;7.794;2024-01-07T09:58:33;4.70;99.90
21722;DHT22;11023;48.274;7.794;2024-01-07T10:00:59;4.60;99.90
21722;DHT22;11023;48.274;7.794;2024-01-07T10:03:25;4.60;99.90
21722;DHT22;11023;48.274;7.794;2024-01-07T10:05:51;4.60;99.90
21722;DHT22;11023;48.274;7.794;2024-01-07T10:08:17;4.60;99.90
21722;DHT22;11023;48.274;7.794;2024-01-07T10:10:43;4.60;99.90
21722;DHT22;11023;48.274;7.794;2024-01-07T10:13:09;4.60;99.90
21722;DHT22;11023;48.274;7.794;2024-01-07T10:15:35;4.70;99.90
21722;DHT22;11023;48.274;7.794;2024-01-07T10:18:07;4.70;99.90
21722;DHT22;11023;48.274;7.794;2024-01-07T10:20:33;4.70;99.90
21722;DHT22;11023;48.274;7.794;2024-01-07T10:23:01;4.70;99.90
21722;DHT22;11023;48.274;7.794;2024-01-07T10:25:30;4.80;99.90
21722;DHT22;11023;48.274;7.794;2024-01-07T10:27:59;4.70;99.90
21722;DHT22;11023;48.274;7.794;2024-01-07T10:30:26;4.80;99.90
21722;DHT22;11023;48.274;7.794;2024-01-07T10:32:58;4.80;99.90
21722;DHT22;11023;48.274;7.794;2024-01-07T10:35:35;4.70;99.90
21722;DHT22;11023;48.274;7.794;2024-01-07T10:38:01;4.70;99.90
21722;DHT22;11023;48.274;7.794;2024-01-07T10:40:28;4.70;99.90
21722;DHT22;11023;48.274;7.794;2024-01-07T10:42:55;4.70;99.90
21722;DHT22;11023;48.274;7.794;2024-01-07T10:45:22;4.70;99.90
21722;DHT22;11023;48.274;7.794;2024-01-07T10:47:54;4.80;99.90
21722;DHT22;11023;48.274;7.794;2024-01-07T10:50:22;4.80;99.90
21722;DHT22;11023;48.274;7.794;2024-01-07T10:52:50;4.80;99.90
21722;DHT22;11023;48.274;7.794;2024-01-07T10:55:18;4.80;99.90
21722;DHT22;11023;48.274;7.794;2024-01-07T10:57:46;4.90;99.90
21722;DHT22;11023;48.274;7.794;2024-01-07T11:00:13;4.80;99.90
21722;DHT22;11023;48.274;7.794;2024-01-07T11:05:58;5.00;99.90
21722;DHT22;11023;48.274;7.794;2024-01-07T11:08:38;4.90;99.90
21722;DHT22;11023;48.274;7.794;2024-01-07T11:11:10;5.00;99.90
21722;DHT22;11023;48.274;7.794;2024-01-07T11:13:39;5.00;99.90
21722;DHT22;11023;48.274;7.794;2024-01-07T11:16:08;5.00;99.90
21722;DHT22;11023;48.274;7.794;2024-01-07T11:18:46;5.10;99.90
21722;DHT22;11023;48.274;7.794;2024-01-07T11:21:21;5.10;99.90
21722;DHT22;11023;48.274;7.794;2024-01-07T11:23:47;5.10;99.90
21722;DHT22;11023;48.274;7.794;2024-01-07T11:26:13;5.10;99.90
21722;DHT22;11023;48.274;7.794;2024-01-07T11:28:45;5.10;99.90
21722;DHT22;11023;48.274;7.794;2024-01-07T11:31:12;5.20;99.90
21722;DHT22;11023;48.274;7.794;2024-01-07T11:33:38;5.20;99.90
21722;DHT22;11023;48.274;7.794;2024-01-07T11:36:07;5.20;99.90
21722;DHT22;11023;48.274;7.794;2024-01-07T11:38:36;5.30;99.90
21722;DHT22;11023;48.274;7.794;2024-01-07T11:41:06;5.30;99.90
21722;DHT22;11023;48.274;7.794;2024-01-07T11:43:33;5.30;99.90
21722;DHT22;11023;48.274;7.794;2024-01-07T11:46:00;5.30;99.90
21722;DHT22;11023;48.274;7.794;2024-01-07T11:48:26;5.40;99.90
21722;DHT22;11023;48.274;7.794;2024-01-07T11:50:52;5.40;99.90
21722;DHT22;11023;48.274;7.794;2024-01-07T11:53:18;5.40;99.90
21722;DHT22;11023;48.274;7.794;2024-01-07T11:55:44;5.50;99.90
21722;DHT22;11023;48.274;7.794;2024-01-07T11:58:11;5.40;99.90
21722;DHT22;11023;48.274;7.794;2024-01-07T12:00:37;5.40;99.90
21722;DHT22;11023;48.274;7.794;2024-01-07T12:03:03;5.40;99.90
21722;DHT22;11023;48.274;7.794;2024-01-07T12:05:29;5.40;99.90
21722;DHT22;11023;48.274;7.794;2024-01-07T12:07:56;5.40;99.90
21722;DHT22;11023;48.274;7.794;2024-01-07T12:10:23;5.40;99.90
21722;DHT22;11023;48.274;7.794;2024-01-07T12:12:49;5.40;99.90
21722;DHT22;11023;48.274;7.794;2024-01-07T12:15:16;5.40;99.90
21722;DHT22;11023;48.274;7.794;2024-01-07T12:17:42;5.30;99.90
21722;DHT22;11023;48.274;7.794;2024-01-07T12:20:08;5.40;99.90
21722;DHT22;11023;48.274;7.794;2024-01-07T12:22:43;5.40;99.90
21722;DHT22;11023;48.274;7.794;2024-01-07T12:25:09;5.40;99.90
21722;DHT22;11023;48.274;7.794;2024-01-07T12:27:35;5.50;99.90
21722;DHT22;11023;48.274;7.794;2024-01-07T12:30:01;5.40;99.90
21722;DHT22;11023;48.274;7.794;2024-01-07T12:32:27;5.40;99.90
21722;DHT22;11023;48.274;7.794;2024-01-07T12:34:53;5.40;99.90
21722;DHT22;11023;48.274;7.794;2024-01-07T12:37:20;5.40;99.90
21722;DHT22;11023;48.274;7.794;2024-01-07T12:39:45;5.50;99.90
21722;DHT22;11023;48.274;7.794;2024-01-07T12:42:11;5.40;99.90
21722;DHT22;11023;48.274;7.794;2024-01-07T12:44:39;5.30;99.90
21722;DHT22;11023;48.274;7.794;2024-01-07T12:47:05;5.40;99.90
21722;DHT22;11023;48.274;7.794;2024-01-07T12:49:31;5.40;99.90
21722;DHT22;11023;48.274;7.794;2024-01-07T12:51:56;5.40;99.90
21722;DHT22;11023;48.274;7.794;2024-01-07T12:54:22;5.40;99.90
21722;DHT22;11023;48.274;7.794;2024-01-07T12:56:50;5.30;99.90
21722;DHT22;11023;48.274;7.794;2024-01-07T12:59:17;5.40;99.90
21722;DHT22;11023;48.274;7.794;2024-01-07T13:01:55;5.40;99.90
21722;DHT22;11023;48.274;7.794;2024-01-07T13:04:21;5.40;99.90
21722;DHT22;11023;48.274;7.794;2024-01-07T13:06:46;5.40;99.90
21722;DHT22;11023;48.274;7.794;2024-01-07T13:09:12;5.40;99.90
21722;DHT22;11023;48.274;7.794;2024-01-07T13:11:38;5.40;99.90
21722;DHT22;11023;48.274;7.794;2024-01-07T13:14:04;5.30;99.90
21722;DHT22;11023;48.274;7.794;2024-01-07T13:16:29;5.30;99.90
21722;DHT22;11023;48.274;7.794;2024-01-07T13:18:55;5.30;99.90
21722;DHT22;11023;48.274;7.794;2024-01-07T13:21:21;5.20;99.90
21722;DHT22;11023;48.274;7.794;2024-01-07T13:23:47;5.10;99.90
21722;DHT22;11023;48.274;7.794;2024-01-07T13:26:16;5.10;99.90
21722;DHT22;11023;48.274;7.794;2024-01-07T13:28:42;5.00;99.90
21722;DHT22;11023;48.274;7.794;2024-01-07T13:31:10;5.00;99.90
21722;DHT22;11023;48.274;7.794;2024-01-07T13:33:38;5.00;99.90
21722;DHT22;11023;48.274;7.794;2024-01-07T13:36:04;5.00;99.90
21722;DHT22;11023;48.274;7.794;2024-01-07T13:38:36;5.00;99.90
21722;DHT22;11023;48.274;7.794;2024-01-07T13:41:04;4.90;99.90
21722;DHT22;11023;48.274;7.794;2024-01-07T13:43:30;4.90;99.90
21722;DHT22;11023;48.274;7.794;2024-01-07T13:45:57;4.90;99.90
21722;DHT22;11023;48.274;7.794;2024-01-07T13:48:22;5.00;99.90
21722;DHT22;11023;48.274;7.794;2024-01-07T13:50:48;4.90;99.90
21722;DHT22;11023;48.274;7.794;2024-01-07T13:53:15;4.90;99.90
21722;DHT22;11023;48.274;7.794;2024-01-07T13:55:40;4.80;99.90
21722;DHT22;11023;48.274;7.794;2024-01-07T13:58:06;4.80;99.90
21722;DHT22;11023;48.274;7.794;2024-01-07T14:00:32;4.70;99.90
21722;DHT22;11023;48.274;7.794;2024-01-07T14:02:57;4.70;99.90
21722;DHT22;11023;48.274;7.794;2024-01-07T14:05:23;4.70;99.90
21722;DHT22;11023;48.274;7.794;2024-01-07T14:07:48;4.60;99.90
21722;DHT22;11023;48.274;7.794;2024-01-07T14:10:14;4.70;99.90
21722;DHT22;11023;48.274;7.794;2024-01-07T14:12:41;4.70;99.90
21722;DHT22;11023;48.274;7.794;2024-01-07T14:15:08;4.60;99.90
21722;DHT22;11023;48.274;7.794;2024-01-07T14:17:34;4.60;99.90
21722;DHT22;11023;48.274;7.794;2024-01-07T14:20:00;4.60;99.90
21722;DHT22;11023;48.274;7.794;2024-01-07T14:22:26;4.60;99.90
21722;DHT22;11023;48.274;7.794;2024-01-07T14:24:53;4.60;99.90
21722;DHT22;11023;48.274;7.794;2024-01-07T14:27:19;4.50;99.90
21722;DHT22;11023;48.274;7.794;2024-01-07T14:29:45;4.50;99.90
21722;DHT22;11023;48.274;7.794;2024-01-07T14:32:11;4.50;99.90
21722;DHT22;11023;48.274;7.794;2024-01-07T14:34:40;4.50;99.90
21722;DHT22;11023;48.274;7.794;2024-01-07T14:37:08;4.50;99.90
21722;DHT22;11023;48.274;7.794;2024-01-07T14:39:43;4.50;99.90
21722;DHT22;11023;48.274;7.794;2024-01-07T14:42:11;4.50;99.90
21722;DHT22;11023;48.274;7.794;2024-01-07T14:44:37;4.50;99.90
21722;DHT22;11023;48.274;7.794;2024-01-07T14:47:03;4.50;99.90
21722;DHT22;11023;48.274;7.794;2024-01-07T14:49:29;4.50;99.90
21722;DHT22;11023;48.274;7.794;2024-01-07T14:51:54;4.50;99.90
21722;DHT22;11023;48.274;7.794;2024-01-07T14:54:20;4.40;99.90
21722;DHT22;11023;48.274;7.794;2024-01-07T14:56:46;4.40;99.90
21722;DHT22;11023;48.274;7.794;2024-01-07T14:59:12;4.30;99.90
21722;DHT22;11023;48.274;7.794;2024-01-07T15:01:37;4.40;99.90
21722;DHT22;11023;48.274;7.794;2024-01-07T15:04:07;4.40;99.90
21722;DHT22;11023;48.274;7.794;2024-01-07T15:06:40;4.30;99.90
21722;DHT22;11023;48.274;7.794;2024-01-07T15:09:06;4.40;99.90
21722;DHT22;11023;48.274;7.794;2024-01-07T15:11:32;4.40;99.90
21722;DHT22;11023;48.274;7.794;2024-01-07T15:13:58;4.30;99.90
21722;DHT22;11023;48.274;7.794;2024-01-07T15:16:23;4.20;99.90
21722;DHT22;11023;48.274;7.794;2024-01-07T15:18:49;4.20;99.90
21722;DHT22;11023;48.274;7.794;2024-01-07T15:21:14;4.20;99.90
21722;DHT22;11023;48.274;7.794;2024-01-07T15:23:40;4.10;99.90
21722;DHT22;11023;48.274;7.794;2024-01-07T15:26:06;4.00;99.90
21722;DHT22;11023;48.274;7.794;2024-01-07T15:28:31;4.00;99.90
21722;DHT22;11023;48.274;7.794;2024-01-07T15:30:58;3.90;99.90
21722;DHT22;11023;48.274;7.794;2024-01-07T15:33:24;3.90;99.90
21722;DHT22;11023;48.274;7.794;2024-01-07T15:35:49;4.00;99.90
21722;DHT22;11023;48.274;7.794;2024-01-07T15:38:15;3.80;99.90
21722;DHT22;11023;48.274;7.794;2024-01-07T15:40:41;3.70;99.90
21722;DHT22;11023;48.274;7.794;2024-01-07T15:43:07;3.70;99.90